Time;durP1;ratioP1;P1;durP2;ratioP2;P2;SDS_P1;SDS_P2;PMS_P1;PMS_P2;Temp;Humidity;BMP_temperature;BMP_pressure;BME280_temperature;BME280_humidity;BME280_pressure;Samples;Min_cycle;Max_cycle;Signal;HPM_P1;HPM_P2
2022/06/10 00:00:54;;;;;;;;;;;;;;;19.59;68.25;100445.13;2036936;28;19921;-47
2022/06/10 00:01:54;;;;;;;;;;;;;;;19.59;68.16;100451.41;2030562;28;19921;-49
2022/06/10 00:02:55;;;;;;;;;;;;;;;19.59;68.38;100450.63;2027982;29;19915;-48
2022/06/10 00:03:55;;;;;;;;;;;;;;;19.59;68.24;100450.63;2038051;28;19918;-51
2022/06/10 00:04:56;;;;;;;;;;;;;;;19.59;68.29;100456.09;2030574;28;19918;-47
2022/06/10 00:05:59;;;;;;;;;;;;;;;19.59;68.25;100447.88;2034800;28;19914;-47
2022/06/10 00:06:59;;;;;;;;;;;;;;;19.58;68.26;100446.31;2032072;28;19930;-46
2022/06/10 00:07:59;;;;;;;;;;;;;;;19.58;68.20;100446.31;2031067;29;19914;-49
2022/06/10 00:08:59;;;;;;;;;;;;;;;19.57;68.37;100448.25;2034117;28;19915;-48
2022/06/10 00:10:00;;;;;;;;;;;;;;;19.58;68.05;100449.03;2036073;28;19907;-48
2022/06/10 00:11:01;;;;;;;;;;;;;;;19.58;68.41;100443.56;2036753;28;20315;-48
2022/06/10 00:12:01;;;;;;;;;;;;;;;19.58;68.24;100452.56;2034177;28;19915;-48
2022/06/10 00:13:02;;;;;;;;;;;;;;;19.58;68.34;100446.31;2036456;28;19914;-48
2022/06/10 00:14:02;;;;;;;;;;;;;;;19.58;68.06;100444.34;2034920;28;19969;-47
2022/06/10 00:15:03;;;;;;;;;;;;;;;19.57;68.06;100445.50;2030686;29;20277;-47
2022/06/10 00:16:04;;;;;;;;;;;;;;;19.57;68.16;100442.78;2031153;29;19921;-48
2022/06/10 00:17:05;;;;;;;;;;;;;;;19.57;68.25;100445.50;2034290;28;21013;-47
2022/06/10 00:18:06;;;;;;;;;;;;;;;19.57;68.52;100441.97;2036982;28;19957;-47
2022/06/10 00:19:06;;;;;;;;;;;;;;;19.56;68.49;100452.22;2029846;29;19925;-49
2022/06/10 00:20:07;;;;;;;;;;;;;;;19.56;68.52;100448.69;2030023;28;19919;-48
2022/06/10 00:21:09;;;;;;;;;;;;;;;19.56;68.49;100448.69;2040169;28;20036;-47
2022/06/10 00:22:10;;;;;;;;;;;;;;;19.56;68.55;100454.19;2030802;28;19919;-47
2022/06/10 00:23:10;;;;;;;;;;;;;;;19.55;68.72;100445.16;2028709;29;19913;-51
2022/06/10 00:24:10;;;;;;;;;;;;;;;19.54;68.74;100443.59;2038103;28;19975;-48
2022/06/10 00:25:11;;;;;;;;;;;;;;;19.53;68.90;100442.03;2032048;28;19933;-46
2022/06/10 00:26:12;;;;;;;;;;;;;;;19.54;68.91;100437.31;2037200;28;19914;-46
2022/06/10 00:27:13;;;;;;;;;;;;;;;19.53;68.90;100447.53;2032887;29;19941;-48
2022/06/10 00:28:15;;;;;;;;;;;;;;;19.53;68.97;100441.25;2032186;29;19920;-48
2022/06/10 00:29:15;;;;;;;;;;;;;;;19.51;68.79;100446.38;2032758;29;19922;-49
2022/06/10 00:30:16;;;;;;;;;;;;;;;19.53;68.74;100442.03;2029238;29;19921;-46
2022/06/10 00:31:17;;;;;;;;;;;;;;;19.52;68.64;100437.72;2028289;28;20152;-50
2022/06/10 00:32:17;;;;;;;;;;;;;;;19.53;68.59;100435.75;2030217;28;19945;-48
2022/06/10 00:33:18;;;;;;;;;;;;;;;19.54;68.68;100437.31;2029385;29;19911;-48
2022/06/10 00:34:19;;;;;;;;;;;;;;;19.54;68.48;100435.34;2029970;28;19925;-48
2022/06/10 00:35:19;;;;;;;;;;;;;;;19.54;68.51;100429.84;2028873;29;19918;-46
2022/06/10 00:36:20;;;;;;;;;;;;;;;19.54;68.43;100431.81;2030032;29;20009;-46
2022/06/10 00:37:20;;;;;;;;;;;;;;;19.54;68.42;100431.81;2034389;28;19915;-47
2022/06/10 00:38:20;;;;;;;;;;;;;;;19.53;68.34;100436.53;2034985;28;19910;-48
2022/06/10 00:39:20;;;;;;;;;;;;;;;19.53;68.35;100439.28;2029756;29;20460;-49
2022/06/10 00:40:24;;;;;;;;;;;;;;;19.55;68.19;100430.63;2032605;28;20012;-47
2022/06/10 00:41:24;;;;;;;;;;;;;;;19.54;68.06;100432.59;2028209;29;19922;-48
2022/06/10 00:42:24;;;;;;;;;;;;;;;19.54;68.04;100432.59;2019789;29;19921;-56
2022/06/10 00:43:26;;;;;;;;;;;;;;;19.55;68.11;100438.88;2023482;29;19918;-55
2022/06/10 00:44:52;;;;;;;;;;;;;;;19.54;68.11;100438.09;2032915;29;19939;-55
2022/06/10 00:45:52;;;;;;;;;;;;;;;19.52;68.26;100434.97;2027464;29;19964;-55
2022/06/10 00:46:52;;;;;;;;;;;;;;;19.53;68.13;100435.75;2032255;28;19954;-55
2022/06/10 00:47:52;;;;;;;;;;;;;;;19.53;68.14;100438.50;2031268;28;19918;-55
2022/06/10 00:49:05;;;;;;;;;;;;;;;19.52;68.15;100432.22;2033762;28;19957;-55
2022/06/10 00:50:20;;;;;;;;;;;;;;;19.52;68.11;100431.44;2032857;29;19920;-56
2022/06/10 00:51:30;;;;;;;;;;;;;;;19.53;68.16;100431.03;2036379;28;19914;-56
2022/06/10 00:52:34;;;;;;;;;;;;;;;19.51;68.07;100433.41;2027130;29;19915;-55
2022/06/10 00:53:35;;;;;;;;;;;;;;;19.52;68.18;100434.97;2029233;29;20033;-56
2022/06/10 00:54:40;;;;;;;;;;;;;;;19.52;68.15;100437.72;2029085;28;20550;-56
2022/06/10 00:55:42;;;;;;;;;;;;;;;19.51;67.99;100432.66;2029237;28;19915;-55
2022/06/10 00:56:45;;;;;;;;;;;;;;;19.52;67.95;100434.97;2036853;28;19970;-55
2022/06/10 00:57:45;;;;;;;;;;;;;;;19.52;68.21;100431.44;2034465;28;19914;-55
2022/06/10 00:58:52;;;;;;;;;;;;;;;19.50;68.07;100429.13;2029533;29;19914;-56
2022/06/10 00:59:52;;;;;;;;;;;;;;;19.50;68.16;100428.34;2034179;28;20385;-55
2022/06/10 01:00:53;;;;;;;;;;;;;;;19.51;68.25;100424.41;2031019;28;19914;-54
2022/06/10 01:01:56;;;;;;;;;;;;;;;19.51;68.05;100421.66;2030502;29;20268;-57
2022/06/10 01:02:56;;;;;;;;;;;;;;;19.50;68.25;100417.34;2031140;28;20029;-54
2022/06/10 01:03:57;;;;;;;;;;;;;;;19.50;68.29;100417.34;2032839;28;19914;-55
2022/06/10 01:04:58;;;;;;;;;;;;;;;19.49;68.16;100418.53;2033526;28;19925;-55
2022/06/10 01:05:59;;;;;;;;;;;;;;;19.49;68.16;100418.53;2037412;28;19914;-56
2022/06/10 01:06:59;;;;;;;;;;;;;;;19.48;68.25;100417.75;2032799;28;20679;-56
2022/06/10 01:08:03;;;;;;;;;;;;;;;19.49;68.22;100418.53;2033086;28;19961;-54
2022/06/10 01:09:03;;;;;;;;;;;;;;;19.49;68.16;100419.31;2039142;28;19925;-55
2022/06/10 01:10:06;;;;;;;;;;;;;;;19.48;68.20;100423.25;2032011;28;19921;-55
2022/06/10 01:11:06;;;;;;;;;;;;;;;19.47;68.40;100416.19;2031519;28;19906;-55
2022/06/10 01:12:07;;;;;;;;;;;;;;;19.47;68.28;100416.19;2036446;28;19998;-54
2022/06/10 01:13:16;;;;;;;;;;;;;;;19.48;68.35;100405.97;2035427;28;19964;-55
2022/06/10 01:14:35;;;;;;;;;;;;;;;19.48;68.19;100411.47;2036737;28;19906;-56
2022/06/10 01:15:41;;;;;;;;;;;;;;;19.47;68.23;100413.44;2036672;28;20292;-55
2022/06/10 01:16:49;;;;;;;;;;;;;;;19.48;68.26;100408.72;2032941;28;19914;-56
2022/06/10 01:17:52;;;;;;;;;;;;;;;19.47;68.10;100405.19;2037572;28;19921;-55
2022/06/10 01:19:01;;;;;;;;;;;;;;;19.48;68.22;100405.97;2029782;29;19950;-56
2022/06/10 01:20:06;;;;;;;;;;;;;;;19.47;68.10;100412.66;2028289;29;19919;-56
2022/06/10 01:21:22;;;;;;;;;;;;;;;19.47;67.99;100412.66;2035596;29;20213;-57
2022/06/10 01:22:41;;;;;;;;;;;;;;;19.46;68.09;100414.63;2032157;28;19962;-56
2022/06/10 01:23:48;;;;;;;;;;;;;;;19.46;68.06;100408.38;2021976;29;19950;-56
2022/06/10 01:24:54;;;;;;;;;;;;;;;19.47;67.76;100404.41;2028373;29;19902;-56
2022/06/10 01:25:57;;;;;;;;;;;;;;;19.46;67.90;100398.13;2032820;28;20349;-56
2022/06/10 01:28:35;;;;;;;;;;;;;;;19.45;68.03;100399.34;2028993;29;19914;-55
2022/06/10 01:29:55;;;;;;;;;;;;;;;19.44;68.15;100395.00;2031393;28;20989;-55
2022/06/10 01:31:05;;;;;;;;;;;;;;;19.43;68.34;100390.69;2032581;28;20392;-54
2022/06/10 01:32:10;;;;;;;;;;;;;;;19.45;68.17;100395.81;2035099;28;20568;-56
2022/06/10 01:33:10;;;;;;;;;;;;;;;19.44;67.90;100389.50;2034967;28;20510;-55
2022/06/10 01:34:28;;;;;;;;;;;;;;;19.45;67.92;100391.09;2035539;28;19914;-54
2022/06/10 01:35:31;;;;;;;;;;;;;;;19.44;68.43;100388.72;2029378;29;20392;-56
2022/06/10 01:36:37;;;;;;;;;;;;;;;19.44;68.13;100385.97;2036543;29;19914;-55
2022/06/10 01:37:41;;;;;;;;;;;;;;;19.42;68.37;100381.66;2028118;29;20425;-52
2022/06/10 01:38:45;;;;;;;;;;;;;;;19.44;67.72;100388.72;2037636;28;20218;-55
2022/06/10 01:39:56;;;;;;;;;;;;;;;19.45;67.74;100384.84;2031453;28;19914;-55
2022/06/10 01:40:56;;;;;;;;;;;;;;;19.43;67.64;100376.97;2032742;28;19918;-56
2022/06/10 01:42:00;;;;;;;;;;;;;;;19.44;68.10;100385.97;2037322;28;19910;-55
2022/06/10 01:43:26;;;;;;;;;;;;;;;19.43;67.98;100376.97;2033808;28;19906;-56
2022/06/10 01:44:27;;;;;;;;;;;;;;;19.41;67.96;100377.34;2005336;29;20345;-55
2022/06/10 01:45:27;;;;;;;;;;;;;;;19.42;67.75;100373.44;2036485;28;19917;-56
2022/06/10 01:46:27;;;;;;;;;;;;;;;19.42;67.90;100381.66;2040168;28;19918;-56
2022/06/10 01:47:31;;;;;;;;;;;;;;;19.42;67.52;100383.63;2035964;28;19914;-56
2022/06/10 01:48:40;;;;;;;;;;;;;;;19.41;67.91;100377.34;2035040;28;19906;-56
2022/06/10 01:49:45;;;;;;;;;;;;;;;19.39;67.79;100377.00;2034812;28;20291;-56
2022/06/10 01:50:54;;;;;;;;;;;;;;;19.40;67.82;100375.03;2032832;28;19934;-55
2022/06/10 01:52:00;;;;;;;;;;;;;;;19.39;67.86;100377.00;2032598;28;20393;-54
2022/06/10 01:53:04;;;;;;;;;;;;;;;19.40;67.76;100384.03;2035861;28;19914;-53
2022/06/10 01:54:09;;;;;;;;;;;;;;;19.41;67.47;100385.59;2028903;28;20120;-55
2022/06/10 01:55:18;;;;;;;;;;;;;;;19.41;67.55;100373.81;2031927;28;19943;-55
2022/06/10 01:56:25;;;;;;;;;;;;;;;19.41;67.62;100385.59;2030581;28;20009;-54
2022/06/10 01:57:27;;;;;;;;;;;;;;;19.39;67.46;100384.47;2030058;29;19915;-56
2022/06/10 01:58:34;;;;;;;;;;;;;;;19.40;67.27;100384.03;2021151;28;19917;-56
2022/06/10 01:59:44;;;;;;;;;;;;;;;19.39;67.31;100377.00;2033634;28;19949;-55
2022/06/10 02:00:46;;;;;;;;;;;;;;;19.40;67.25;100383.28;2026599;29;19922;-53
2022/06/10 02:01:50;;;;;;;;;;;;;;;19.40;67.22;100384.03;2031363;28;20012;-56
2022/06/10 02:02:59;;;;;;;;;;;;;;;19.41;67.28;100384.81;2029055;28;20398;-56
2022/06/10 02:04:03;;;;;;;;;;;;;;;19.41;67.16;100387.56;2029055;28;20005;-55
2022/06/10 02:05:12;;;;;;;;;;;;;;;19.39;67.45;100385.25;2031680;28;19914;-55
2022/06/10 02:06:16;;;;;;;;;;;;;;;19.38;67.54;100389.16;2029053;29;19933;-55
2022/06/10 02:07:19;;;;;;;;;;;;;;;19.38;67.77;100385.66;2036140;28;20319;-55
2022/06/10 02:08:27;;;;;;;;;;;;;;;19.37;67.59;100395.06;2032523;28;19919;-56
2022/06/10 02:09:30;;;;;;;;;;;;;;;19.38;67.22;100386.44;2018469;29;20322;-56
2022/06/10 02:10:32;;;;;;;;;;;;;;;19.37;67.33;100390.34;2028896;28;20466;-55
2022/06/10 02:11:34;;;;;;;;;;;;;;;19.36;67.13;100394.28;2034512;28;19914;-55
2022/06/10 02:12:37;;;;;;;;;;;;;;;19.36;67.05;100386.03;2037157;28;19910;-56
2022/06/10 02:13:58;;;;;;;;;;;;;;;19.36;67.24;100386.03;2038234;28;20660;-55
2022/06/10 02:15:01;;;;;;;;;;;;;;;19.36;67.43;100382.50;2038644;28;19918;-56
2022/06/10 02:16:04;;;;;;;;;;;;;;;19.36;67.20;100388.78;2031024;29;19922;-56
2022/06/10 02:17:05;;;;;;;;;;;;;;;19.35;67.49;100384.47;2034317;28;19910;-55
2022/06/10 02:18:09;;;;;;;;;;;;;;;19.36;67.54;100379.75;2035444;28;19914;-55
2022/06/10 02:19:20;;;;;;;;;;;;;;;19.37;67.35;100384.06;2029849;29;20023;-56
2022/06/10 02:20:22;;;;;;;;;;;;;;;19.35;67.74;100378.97;2028300;28;19922;-56
2022/06/10 02:21:43;;;;;;;;;;;;;;;19.35;67.54;100381.72;2028372;29;19909;-55
2022/06/10 02:22:45;;;;;;;;;;;;;;;19.34;67.46;100380.19;2028816;29;20009;-55
2022/06/10 02:23:48;;;;;;;;;;;;;;;19.33;67.50;100378.63;2028250;28;20065;-56
2022/06/10 02:25:09;;;;;;;;;;;;;;;19.34;67.46;100377.44;2030335;28;19970;-55
2022/06/10 02:26:10;;;;;;;;;;;;;;;19.32;67.26;100382.56;2028262;28;19950;-56
2022/06/10 02:27:15;;;;;;;;;;;;;;;19.33;67.35;100389.63;2029786;29;19915;-54
2022/06/10 02:28:18;;;;;;;;;;;;;;;19.33;67.34;100392.38;2033611;28;19903;-55
2022/06/10 02:29:20;;;;;;;;;;;;;;;19.34;67.15;100390.41;2036158;28;20308;-55
2022/06/10 02:30:26;;;;;;;;;;;;;;;19.35;67.08;100380.97;2028023;29;19946;-55
2022/06/10 02:31:36;;;;;;;;;;;;;;;19.35;67.14;100380.97;2031847;28;19958;-55
2022/06/10 02:32:38;;;;;;;;;;;;;;;19.34;67.06;100380.19;2034470;28;19918;-56
2022/06/10 02:33:39;;;;;;;;;;;;;;;19.33;67.25;100380.59;2038277;28;20397;-56
2022/06/10 02:34:39;;;;;;;;;;;;;;;19.33;67.08;100380.59;2032168;28;19958;-56
2022/06/10 02:35:45;;;;;;;;;;;;;;;19.32;67.22;100385.31;2036603;28;19914;-56
2022/06/10 02:36:48;;;;;;;;;;;;;;;19.33;67.04;100380.59;2028890;28;19937;-55
2022/06/10 02:37:59;;;;;;;;;;;;;;;19.34;66.97;100388.44;2030177;28;19919;-56
2022/06/10 02:39:14;;;;;;;;;;;;;;;19.33;67.13;100383.34;2036796;28;19921;-56
2022/06/10 02:40:31;;;;;;;;;;;;;;;19.33;67.01;100389.63;2019395;29;20021;-56
2022/06/10 02:41:35;;;;;;;;;;;;;;;19.32;67.09;100393.53;2027399;29;20257;-55
2022/06/10 02:42:35;;;;;;;;;;;;;;;19.32;67.21;100390.78;2029852;28;19915;-55
2022/06/10 02:44:05;;;;;;;;;;;;;;;19.32;67.25;100385.31;2036294;28;19911;-55
2022/06/10 02:45:08;;;;;;;;;;;;;;;19.32;67.01;100388.06;2008373;29;19907;-55
2022/06/10 02:46:12;;;;;;;;;;;;;;;19.33;67.11;100391.56;2030731;28;19961;-55
2022/06/10 02:47:31;;;;;;;;;;;;;;;19.33;67.13;100389.63;2040695;28;20011;-55
2022/06/10 02:48:40;;;;;;;;;;;;;;;19.32;66.97;100388.06;2028767;29;19926;-55
2022/06/10 02:49:41;;;;;;;;;;;;;;;19.32;66.93;100399.03;2020451;29;19915;-55
2022/06/10 02:50:44;;;;;;;;;;;;;;;19.33;66.86;100397.84;2026022;28;20385;-55
2022/06/10 02:51:46;;;;;;;;;;;;;;;19.32;66.89;100388.06;2032539;28;19985;-55
2022/06/10 02:52:47;;;;;;;;;;;;;;;19.33;66.80;100392.38;2036476;28;19914;-56
2022/06/10 02:53:47;;;;;;;;;;;;;;;19.33;66.75;100392.38;2036630;28;19937;-55
2022/06/10 02:54:47;;;;;;;;;;;;;;;19.32;66.67;100390.78;2029562;29;19919;-56
2022/06/10 02:55:48;;;;;;;;;;;;;;;19.32;66.73;100392.75;2034441;28;19910;-54
2022/06/10 02:56:48;;;;;;;;;;;;;;;19.32;66.66;100395.50;2034731;28;19961;-56
2022/06/10 03:01:52;;;;;;;;;;;;;;;19.29;67.10;100399.06;2029983;29;19919;-56
2022/06/10 03:03:01;;;;;;;;;;;;;;;19.30;66.93;100395.13;2029923;28;20211;-56
2022/06/10 03:04:02;;;;;;;;;;;;;;;19.28;66.95;100403.78;2033603;28;20235;-55
2022/06/10 03:05:14;;;;;;;;;;;;;;;19.28;67.05;100401.03;2026909;29;19914;-54
2022/06/10 03:06:15;;;;;;;;;;;;;;;19.27;67.03;100396.72;2026128;28;19915;-55
2022/06/10 03:07:21;;;;;;;;;;;;;;;19.27;67.23;100404.19;2034697;28;19917;-56
2022/06/10 03:08:44;;;;;;;;;;;;;;;19.27;67.31;100396.72;2033487;28;19909;-56
2022/06/10 03:09:48;;;;;;;;;;;;;;;19.27;67.08;100402.22;2023075;29;19973;-54
2022/06/10 03:10:48;;;;;;;;;;;;;;;19.26;67.02;100397.13;2028887;29;19942;-55
2022/06/10 03:11:58;;;;;;;;;;;;;;;19.26;67.08;100400.66;2029400;28;19921;-56
2022/06/10 03:13:08;;;;;;;;;;;;;;;19.26;67.15;100397.91;2030222;28;19910;-54
2022/06/10 03:14:17;;;;;;;;;;;;;;;19.27;67.05;100401.44;2036566;28;19925;-55
2022/06/10 03:15:23;;;;;;;;;;;;;;;19.27;66.95;100406.94;2036915;28;19920;-55
2022/06/10 03:16:30;;;;;;;;;;;;;;;19.27;67.08;100398.69;2034749;28;20372;-55
2022/06/10 03:17:37;;;;;;;;;;;;;;;19.25;67.30;100399.09;2029000;29;19950;-56
2022/06/10 03:18:53;;;;;;;;;;;;;;;19.24;67.21;100392.06;2027441;29;19915;-55
2022/06/10 03:20:08;;;;;;;;;;;;;;;19.25;67.36;100399.09;2028396;28;19969;-55
2022/06/10 03:21:12;;;;;;;;;;;;;;;19.25;67.34;100393.59;2028675;29;19937;-56
2022/06/10 03:22:27;;;;;;;;;;;;;;;19.24;67.35;100392.06;2021189;29;19912;-56
2022/06/10 03:23:39;;;;;;;;;;;;;;;19.25;67.42;100395.56;2026711;28;20399;-55
2022/06/10 03:24:39;;;;;;;;;;;;;;;19.24;67.26;100400.31;2033226;28;19985;-54
2022/06/10 03:25:43;;;;;;;;;;;;;;;19.23;67.38;100398.72;2035269;28;20249;-55
2022/06/10 03:26:48;;;;;;;;;;;;;;;19.22;67.43;100396.38;2034281;29;19927;-54
2022/06/10 03:27:49;;;;;;;;;;;;;;;19.23;67.31;100390.50;2028926;29;19925;-54
2022/06/10 03:28:52;;;;;;;;;;;;;;;19.24;67.09;100407.75;2027742;28;19925;-53
2022/06/10 03:29:56;;;;;;;;;;;;;;;19.25;67.17;100398.31;2028047;29;20927;-55
2022/06/10 03:30:56;;;;;;;;;;;;;;;19.25;67.01;100398.31;2028548;29;20400;-55
2022/06/10 03:32:17;;;;;;;;;;;;;;;19.25;67.15;100401.84;2029838;29;19985;-55
2022/06/10 03:33:24;;;;;;;;;;;;;;;19.24;67.03;100397.56;2028817;29;20381;-54
2022/06/10 03:34:31;;;;;;;;;;;;;;;19.24;67.21;100399.53;2027361;29;20014;-55
2022/06/10 03:35:51;;;;;;;;;;;;;;;19.24;67.01;100403.06;2027950;29;20516;-53
2022/06/10 03:36:52;;;;;;;;;;;;;;;19.24;67.09;100391.28;2022445;29;19911;-55
2022/06/10 03:37:53;;;;;;;;;;;;;;;19.23;67.12;100396.00;2029103;29;20476;-56
2022/06/10 03:38:54;;;;;;;;;;;;;;;19.23;66.97;100401.47;2028454;29;19914;-56
2022/06/10 03:39:55;;;;;;;;;;;;;;;19.23;66.95;100395.22;2027015;29;19914;-55
2022/06/10 03:40:57;;;;;;;;;;;;;;;19.21;66.98;100398.34;2030311;29;19921;-56
2022/06/10 03:42:04;;;;;;;;;;;;;;;19.22;66.91;100404.63;2038419;28;19915;-56
2022/06/10 03:43:06;;;;;;;;;;;;;;;19.23;66.88;100403.44;2029991;28;20127;-55
2022/06/10 03:44:15;;;;;;;;;;;;;;;19.22;66.82;100397.16;2029344;29;19914;-55
2022/06/10 03:45:17;;;;;;;;;;;;;;;19.22;66.76;100404.63;2029824;29;19915;-56
2022/06/10 03:46:19;;;;;;;;;;;;;;;19.23;66.64;100400.69;2034551;28;20000;-55
2022/06/10 03:47:24;;;;;;;;;;;;;;;19.22;66.72;100405.41;2042282;28;19914;-55
2022/06/10 03:48:25;;;;;;;;;;;;;;;19.21;66.68;100412.06;2028593;29;19965;-55
2022/06/10 03:49:31;;;;;;;;;;;;;;;19.21;66.84;100398.34;2028653;28;19958;-55
2022/06/10 03:50:35;;;;;;;;;;;;;;;19.22;66.77;100410.91;2029821;28;19914;-55
2022/06/10 03:51:36;;;;;;;;;;;;;;;19.21;66.76;100409.34;2028145;29;19914;-53
2022/06/10 03:52:38;;;;;;;;;;;;;;;19.20;66.94;100413.25;2030699;28;20937;-56
2022/06/10 03:53:38;;;;;;;;;;;;;;;19.20;66.98;100407.78;2037029;28;19913;-54
2022/06/10 03:54:38;;;;;;;;;;;;;;;19.20;66.99;100421.50;2030006;28;20001;-55
2022/06/10 03:55:39;;;;;;;;;;;;;;;19.19;67.06;100419.94;2028061;28;19966;-56
2022/06/10 03:56:39;;;;;;;;;;;;;;;19.20;67.04;100413.25;2036292;28;20248;-56
2022/06/10 03:57:39;;;;;;;;;;;;;;;19.20;66.98;100413.25;2031113;28;19906;-55
2022/06/10 03:58:40;;;;;;;;;;;;;;;19.19;66.91;100411.69;2035205;28;19965;-56
2022/06/10 03:59:40;;;;;;;;;;;;;;;19.19;66.99;100417.19;2035647;28;19914;-55
2022/06/10 04:00:41;;;;;;;;;;;;;;;19.18;66.92;100423.88;2029681;28;19913;-54
2022/06/10 04:01:41;;;;;;;;;;;;;;;19.19;66.87;100413.69;2029923;28;19987;-55
2022/06/10 04:02:41;;;;;;;;;;;;;;;19.18;66.81;100414.88;2028734;29;20225;-54
2022/06/10 04:03:41;;;;;;;;;;;;;;;19.17;66.94;100419.56;2032061;29;19911;-55
2022/06/10 04:04:43;;;;;;;;;;;;;;;19.17;66.98;100403.09;2029078;28;19921;-54
2022/06/10 04:05:44;;;;;;;;;;;;;;;19.16;66.90;100412.53;2033790;28;19918;-55
2022/06/10 04:06:44;;;;;;;;;;;;;;;19.17;66.98;100408.59;2036179;28;19973;-55
2022/06/10 04:07:45;;;;;;;;;;;;;;;19.16;66.77;100409.78;2028443;28;19915;-54
2022/06/10 04:08:46;;;;;;;;;;;;;;;19.17;66.76;100410.56;2029189;29;19915;-55
2022/06/10 04:09:46;;;;;;;;;;;;;;;19.16;66.72;100407.03;2025527;29;19921;-55
2022/06/10 04:10:47;;;;;;;;;;;;;;;19.16;66.89;100407.03;2022093;29;20014;-54
2022/06/10 04:11:47;;;;;;;;;;;;;;;19.15;66.82;100405.47;2036102;28;20009;-55
2022/06/10 04:12:48;;;;;;;;;;;;;;;19.14;67.07;100403.91;2027439;28;19921;-52
2022/06/10 04:13:48;;;;;;;;;;;;;;;19.14;67.29;100408.63;2029374;29;20297;-56
2022/06/10 04:14:49;;;;;;;;;;;;;;;19.13;67.31;100412.56;2027872;28;19914;-56
2022/06/10 04:15:49;;;;;;;;;;;;;;;19.13;67.36;100413.34;2028586;28;20583;-56
2022/06/10 04:16:49;;;;;;;;;;;;;;;19.16;67.13;100412.53;2031074;28;19913;-56
2022/06/10 04:17:50;;;;;;;;;;;;;;;19.15;67.05;100416.44;2035334;28;20414;-53
2022/06/10 04:18:51;;;;;;;;;;;;;;;19.16;67.10;100412.53;2032036;28;19915;-54
2022/06/10 04:19:52;;;;;;;;;;;;;;;19.18;67.15;100409.38;2030834;28;20325;-55
2022/06/10 04:20:52;;;;;;;;;;;;;;;19.17;67.19;100416.03;2029766;29;20235;-55
2022/06/10 04:21:52;;;;;;;;;;;;;;;19.16;67.33;100414.47;2029702;28;20017;-55
2022/06/10 04:22:53;;;;;;;;;;;;;;;19.15;67.61;100415.66;2027705;29;20615;-56
2022/06/10 04:23:53;;;;;;;;;;;;;;;19.14;67.42;100414.88;2034503;28;20032;-56
2022/06/10 04:24:53;;;;;;;;;;;;;;;19.16;67.18;100409.00;2027949;28;19915;-55
2022/06/10 04:25:54;;;;;;;;;;;;;;;19.14;67.06;100406.63;2032506;28;19914;-55
2022/06/10 04:26:54;;;;;;;;;;;;;;;19.13;67.23;100407.84;2028698;29;19919;-56
2022/06/10 04:27:54;;;;;;;;;;;;;;;19.12;67.56;100411.78;2032743;28;20344;-56
2022/06/10 04:28:55;;;;;;;;;;;;;;;19.12;67.44;100409.03;2038205;28;19965;-56
2022/06/10 04:29:55;;;;;;;;;;;;;;;19.10;67.37;100403.16;2030360;28;19915;-55
2022/06/10 04:30:55;;;;;;;;;;;;;;;19.09;67.56;100407.06;2029677;29;19914;-56
2022/06/10 04:31:56;;;;;;;;;;;;;;;19.09;67.48;100404.34;2034918;28;19960;-54
2022/06/10 04:32:56;;;;;;;;;;;;;;;19.10;67.22;100408.66;2030065;29;19933;-56
2022/06/10 04:33:57;;;;;;;;;;;;;;;19.09;67.31;100412.56;2032112;29;19926;-55
2022/06/10 04:34:57;;;;;;;;;;;;;;;19.09;67.39;100412.56;2037778;28;19922;-56
2022/06/10 04:35:57;;;;;;;;;;;;;;;19.09;67.52;100412.56;2037332;28;19921;-56
2022/06/10 04:36:58;;;;;;;;;;;;;;;19.10;67.35;100399.63;2035757;28;19965;-55
2022/06/10 04:37:58;;;;;;;;;;;;;;;19.11;67.22;100409.44;2032091;28;20708;-56
2022/06/10 04:38:59;;;;;;;;;;;;;;;19.10;67.30;100408.66;2029382;29;19923;-55
2022/06/10 04:39:59;;;;;;;;;;;;;;;19.09;67.13;100409.81;2036293;28;19906;-56
2022/06/10 04:40:59;;;;;;;;;;;;;;;19.09;67.29;100418.06;2034518;28;19921;-55
2022/06/10 04:42:00;;;;;;;;;;;;;;;19.10;67.35;100416.88;2034755;28;20467;-54
2022/06/10 04:43:00;;;;;;;;;;;;;;;19.09;67.20;100407.06;2025859;29;19957;-55
2022/06/10 04:44:00;;;;;;;;;;;;;;;19.11;67.19;100410.22;2027375;29;19978;-55
2022/06/10 04:45:00;;;;;;;;;;;;;;;19.09;67.31;100412.56;2039808;28;19914;-55
2022/06/10 04:46:02;;;;;;;;;;;;;;;19.08;67.42;100413.78;2036202;28;19914;-54
2022/06/10 04:47:02;;;;;;;;;;;;;;;19.09;66.95;100418.06;2034157;28;19965;-55
2022/06/10 04:48:03;;;;;;;;;;;;;;;19.09;67.08;100417.31;2037778;28;19915;-55
2022/06/10 04:49:04;;;;;;;;;;;;;;;19.08;66.95;100416.53;2033689;29;19914;-55
2022/06/10 04:50:04;;;;;;;;;;;;;;;19.08;67.04;100415.75;2037270;28;19926;-55
2022/06/10 04:51:05;;;;;;;;;;;;;;;19.07;67.24;100416.91;2035117;28;19950;-55
2022/06/10 04:52:05;;;;;;;;;;;;;;;19.08;67.20;100422.00;2032041;28;20383;-56
2022/06/10 04:53:06;;;;;;;;;;;;;;;19.05;66.86;100417.31;2037449;28;20006;-56
2022/06/10 04:54:07;;;;;;;;;;;;;;;19.04;66.85;100415.75;2036436;28;19902;-55
2022/06/10 04:55:08;;;;;;;;;;;;;;;19.04;66.86;100431.44;2032821;28;20169;-55
2022/06/10 04:56:08;;;;;;;;;;;;;;;19.03;66.87;100414.22;2034562;28;20037;-55
2022/06/10 04:57:09;;;;;;;;;;;;;;;19.03;66.92;100413.44;2029946;29;19915;-55
2022/06/10 04:58:10;;;;;;;;;;;;;;;19.05;67.02;100416.53;2028981;28;19914;-53
2022/06/10 04:59:10;;;;;;;;;;;;;;;19.04;67.11;100412.22;2033660;28;20018;-55
2022/06/10 05:00:15;;;;;;;;;;;;;;;19.05;67.00;100417.31;2037062;28;20821;-52
2022/06/10 05:01:16;;;;;;;;;;;;;;;19.04;66.97;100410.25;2030156;29;20388;-56
2022/06/10 05:02:16;;;;;;;;;;;;;;;19.05;67.18;100417.31;2023966;29;19954;-55
2022/06/10 05:03:17;;;;;;;;;;;;;;;19.05;66.67;100413.78;2029576;29;19915;-56
2022/06/10 05:04:18;;;;;;;;;;;;;;;19.04;66.54;100413.00;2036089;28;20289;-55
2022/06/10 05:05:18;;;;;;;;;;;;;;;19.02;66.58;100417.34;2032931;28;19985;-55
2022/06/10 05:06:18;;;;;;;;;;;;;;;19.03;66.73;100416.19;2029271;28;20021;-55
2022/06/10 05:07:19;;;;;;;;;;;;;;;19.02;66.89;100414.59;2031340;28;19954;-55
2022/06/10 05:08:19;;;;;;;;;;;;;;;19.04;66.96;100421.25;2030039;28;19907;-56
2022/06/10 05:09:19;;;;;;;;;;;;;;;19.03;66.86;100419.69;2030416;29;19967;-55
2022/06/10 05:10:20;;;;;;;;;;;;;;;19.02;66.92;100412.66;2036349;28;20261;-55
2022/06/10 05:11:20;;;;;;;;;;;;;;;19.02;66.92;100423.63;2033503;28;19913;-54
2022/06/10 05:12:20;;;;;;;;;;;;;;;19.02;66.89;100412.66;2033831;28;19961;-55
2022/06/10 05:13:21;;;;;;;;;;;;;;;19.02;66.94;100417.34;2034960;28;20001;-54
2022/06/10 05:14:21;;;;;;;;;;;;;;;19.04;66.79;100412.22;2030340;28;20002;-55
2022/06/10 05:15:22;;;;;;;;;;;;;;;19.02;67.06;100415.38;2035088;28;19970;-55
2022/06/10 05:16:23;;;;;;;;;;;;;;;19.02;66.83;100407.16;2028709;28;20322;-55
2022/06/10 05:17:23;;;;;;;;;;;;;;;19.02;66.52;100414.59;2036271;28;19926;-56
2022/06/10 05:18:24;;;;;;;;;;;;;;;19.01;66.55;100411.09;2033889;28;19914;-56
2022/06/10 05:19:24;;;;;;;;;;;;;;;18.98;66.81;100409.16;2037477;28;20523;-56
2022/06/10 05:20:33;;;;;;;;;;;;;;;19.02;66.94;100412.66;2036342;28;19914;-54
2022/06/10 05:21:33;;;;;;;;;;;;;;;19.02;66.99;100409.91;2030244;29;19915;-55
2022/06/10 05:22:33;;;;;;;;;;;;;;;19.00;66.85;100415.00;2029090;29;20223;-53
2022/06/10 05:23:33;;;;;;;;;;;;;;;19.00;66.93;100415.00;2029966;29;19929;-55
2022/06/10 05:24:34;;;;;;;;;;;;;;;19.00;66.66;100412.25;2030248;28;19922;-56
2022/06/10 05:25:35;;;;;;;;;;;;;;;19.00;66.62;100415.00;2038040;28;19915;-54
2022/06/10 05:26:35;;;;;;;;;;;;;;;18.99;66.85;100410.69;2033729;29;19922;-56
2022/06/10 05:27:35;;;;;;;;;;;;;;;19.00;66.83;100409.50;2029212;29;19914;-54
2022/06/10 05:28:35;;;;;;;;;;;;;;;18.99;66.67;100407.94;2029264;29;19935;-54
2022/06/10 05:29:36;;;;;;;;;;;;;;;18.99;66.94;100413.44;2031663;28;20377;-54
2022/06/10 05:30:36;;;;;;;;;;;;;;;18.99;66.66;100403.25;2036456;28;20348;-55
2022/06/10 05:31:37;;;;;;;;;;;;;;;18.99;66.73;100405.97;2028032;29;19915;-54